Terminal Aerodrome Forecast
Issued by NWS Charleston, WV

Home | Current Version | Previous Version | Text Only | Print | Product List | Glossary On
Versions: 1 2 3 4 5 6 7 8 9 10 11 12 13 14 15 16 17 18 19 20 21 22 23
654
FTUS41 KRLX 221740
TAFEKN
TAF
KEKN 221740Z 2218/2318 25009KT 6SM -SHRA VCTS BKN050CB
      TEMPO 2218/2220 3SM TSRA BKN030CB
     FM222000 23008KT P6SM VCTS OVC050CB
      TEMPO 2220/2224 4SM TSRA OVC025CB
     FM230000 22007KT P6SM VCTS BKN050CB
      TEMPO 2300/2303 2SM TSRA OVC025CB
     FM230300 23006KT 2SM SHRA VCTS BKN010CB
     FM230800 24005KT 5SM SHRA OVC025=

USA.gov is the U.S. government's official web portal to all federal, state and local government web resources and services.